createdAt,value
2022-07-29T05:17:57.253Z,19.10
2022-07-29T06:01:09.616Z,20.20
2022-07-29T06:03:38.852Z,20.40
2022-07-29T06:06:11.187Z,20.50
2022-07-29T06:08:38.993Z,20.70
2022-07-29T06:11:34.704Z,20.80
2022-07-29T06:14:06.352Z,21.00
2022-07-29T06:16:35.994Z,21.10
2022-07-29T06:19:08.505Z,21.00
2022-07-29T06:21:38.662Z,21.00
2022-07-29T06:24:09.564Z,21.00
2022-07-29T06:26:39.681Z,21.10
2022-07-29T06:29:08.271Z,21.10
2022-07-29T06:31:35.957Z,21.30
2022-07-29T06:34:03.609Z,21.40
2022-07-29T06:36:31.458Z,21.30
2022-07-29T06:38:58.946Z,21.50
2022-07-29T06:41:27.192Z,21.50
2022-07-29T06:43:55.183Z,21.70
2022-07-29T06:46:24.745Z,22.00
2022-07-29T06:48:53.354Z,22.00
2022-07-29T06:51:24.360Z,22.20
2022-07-29T06:54:00.394Z,22.00
2022-07-29T06:56:38.976Z,21.90
2022-07-29T06:59:14.682Z,22.00
2022-07-29T07:01:45.146Z,22.20
2022-07-29T07:04:13.855Z,22.50
2022-07-29T07:06:41.621Z,22.60
2022-07-29T07:09:09.002Z,22.70
2022-07-29T07:11:36.463Z,22.80
2022-07-29T07:14:04.467Z,22.90
2022-07-29T07:16:32.583Z,23.00
2022-07-29T07:19:00.282Z,23.20
2022-07-29T07:21:38.135Z,23.40
2022-07-29T07:24:05.975Z,23.50
2022-07-29T07:26:33.321Z,23.80
2022-07-29T07:29:03.451Z,24.00
2022-07-29T07:31:30.412Z,23.90
2022-07-29T07:33:57.469Z,24.10
2022-07-29T07:36:25.431Z,24.20
2022-07-29T07:38:52.403Z,24.20
2022-07-29T07:41:19.687Z,24.40
2022-07-29T07:43:46.823Z,24.40
2022-07-29T07:46:14.046Z,24.40
2022-07-29T07:48:41.420Z,24.60
2022-07-29T07:51:08.434Z,24.90
2022-07-29T07:53:36.228Z,25.10
2022-07-29T07:56:13.112Z,25.10
2022-07-29T07:58:40.911Z,25.20
2022-07-29T08:01:08.794Z,25.30
2022-07-29T08:03:36.053Z,25.50
2022-07-29T08:06:04.899Z,25.80
2022-07-29T08:08:32.201Z,26.00
2022-07-29T08:11:02.135Z,26.20
2022-07-29T08:13:33.068Z,26.20
2022-07-29T08:16:02.010Z,26.30
2022-07-29T08:18:31.088Z,26.50
2022-07-29T08:20:58.582Z,26.60
2022-07-29T08:23:25.620Z,26.40
2022-07-29T08:25:54.939Z,26.50
2022-07-29T08:28:22.184Z,26.60
2022-07-29T08:30:53.330Z,26.70
2022-07-29T08:33:20.295Z,27.00
2022-07-29T08:35:47.764Z,27.00
2022-07-29T08:38:14.823Z,27.10
2022-07-29T08:40:42.394Z,27.30
2022-07-29T08:43:11.753Z,27.60
2022-07-29T08:45:48.617Z,28.00
2022-07-29T08:48:21.318Z,28.20
2022-07-29T08:50:51.031Z,28.40
2022-07-29T08:53:19.010Z,28.50
2022-07-29T08:55:50.692Z,28.50
2022-07-29T08:58:22.935Z,28.60
2022-07-29T09:00:53.324Z,28.60
2022-07-29T09:03:24.997Z,28.60
2022-07-29T09:05:52.642Z,28.60
2022-07-29T09:08:21.105Z,28.50
2022-07-29T09:10:48.530Z,28.70
2022-07-29T09:13:15.433Z,29.20
2022-07-29T09:15:42.624Z,29.10
2022-07-29T09:18:20.488Z,29.00
2022-07-29T09:21:14.971Z,29.10
2022-07-29T09:24:09.061Z,29.00
2022-07-29T09:26:38.967Z,29.00
2022-07-29T09:29:16.823Z,29.00
2022-07-29T09:31:48.845Z,29.00
2022-07-29T09:34:18.357Z,29.00
2022-07-29T09:36:49.520Z,28.80
2022-07-29T09:39:27.951Z,28.90
2022-07-29T09:41:58.253Z,29.20
2022-07-29T09:44:26.683Z,29.80
2022-07-29T09:46:59.328Z,29.90
2022-07-29T09:49:26.962Z,29.50
2022-07-29T09:52:04.358Z,29.20
2022-07-29T09:54:37.626Z,28.40
2022-07-29T09:57:13.773Z,27.90
2022-07-29T09:59:56.506Z,27.80
2022-07-29T10:02:24.054Z,27.80
2022-07-29T10:04:51.145Z,27.60
2022-07-29T10:07:18.211Z,27.70
2022-07-29T10:09:58.609Z,27.90
2022-07-29T10:12:25.927Z,28.20
2022-07-29T10:14:53.099Z,28.30
2022-07-29T10:17:20.373Z,28.50
2022-07-29T10:19:48.107Z,29.00
2022-07-29T10:22:15.153Z,29.50
2022-07-29T10:24:44.210Z,29.70
2022-07-29T10:27:11.265Z,29.40
2022-07-29T10:29:38.399Z,29.20
2022-07-29T10:32:25.884Z,29.30
2022-07-29T10:35:07.935Z,29.90
2022-07-29T10:41:12.337Z,30.20
2022-07-29T10:43:48.289Z,29.50
2022-07-29T10:46:19.510Z,29.40
2022-07-29T10:49:18.742Z,30.40
2022-07-29T10:51:51.866Z,31.10
2022-07-29T10:54:37.066Z,32.30
2022-07-29T10:57:52.725Z,32.40
2022-07-29T11:00:16.990Z,32.50
2022-07-29T11:02:46.723Z,32.90
2022-07-29T11:05:18.053Z,33.30
2022-07-29T11:08:19.466Z,33.80
2022-07-29T11:10:49.215Z,33.50
2022-07-29T11:13:52.220Z,32.90
2022-07-29T11:16:25.331Z,32.80
2022-07-29T11:19:14.384Z,32.80
2022-07-29T11:21:53.848Z,33.10
2022-07-29T11:24:33.354Z,33.80
2022-07-29T11:27:14.405Z,34.30
2022-07-29T11:29:54.029Z,33.60
2022-07-29T11:32:23.184Z,33.10
2022-07-29T11:35:17.126Z,32.90
2022-07-29T11:37:52.129Z,32.20
2022-07-29T11:40:23.047Z,32.00
2022-07-29T11:42:52.227Z,32.80
2022-07-29T11:45:42.976Z,33.90
2022-07-29T11:48:31.778Z,34.60
2022-07-29T11:51:00.601Z,34.60
2022-07-29T11:53:29.241Z,33.80
2022-07-29T11:56:00.442Z,32.70
2022-07-29T11:58:28.360Z,31.70
2022-07-29T12:00:56.299Z,31.30
2022-07-29T12:03:35.517Z,30.90
2022-07-29T12:06:17.371Z,30.60
2022-07-29T12:08:45.067Z,30.30
2022-07-29T12:11:20.427Z,30.30
2022-07-29T12:13:49.341Z,30.10
2022-07-29T12:16:16.740Z,30.00
2022-07-29T12:19:02.991Z,30.10
2022-07-29T12:21:52.350Z,30.00
2022-07-29T12:24:26.663Z,29.90
2022-07-29T12:26:59.722Z,29.80
2022-07-29T12:29:33.646Z,29.80
2022-07-29T12:32:01.421Z,30.00
2022-07-29T12:34:30.510Z,29.80
2022-07-29T12:36:57.566Z,29.60
2022-07-29T12:39:27.430Z,29.80
2022-07-29T12:42:04.664Z,30.10
2022-07-29T12:44:49.540Z,30.40
2022-07-29T12:47:19.091Z,30.30
2022-07-29T12:49:46.843Z,30.00
2022-07-29T12:52:35.072Z,29.70
2022-07-29T12:55:02.473Z,29.30
2022-07-29T12:57:30.155Z,29.00
2022-07-29T13:00:15.013Z,28.70
2022-07-29T13:02:44.536Z,28.50
2022-07-29T13:05:48.697Z,28.40
2022-07-29T13:08:20.130Z,28.20
2022-07-29T13:10:49.258Z,27.90
2022-07-29T13:13:16.919Z,27.60
2022-07-29T13:15:50.409Z,27.50
2022-07-29T13:18:34.431Z,27.40
2022-07-29T13:21:24.808Z,27.30
2022-07-29T13:23:51.867Z,27.10
2022-07-29T13:26:21.074Z,26.90
2022-07-29T13:28:49.251Z,26.80
2022-07-29T13:31:21.535Z,26.70
2022-07-29T13:33:49.197Z,26.60
2022-07-29T13:36:16.369Z,26.60
2022-07-29T13:38:43.691Z,26.50
2022-07-29T13:41:14.018Z,26.40
2022-07-29T13:43:41.064Z,26.20
2022-07-29T13:46:08.223Z,26.20
2022-07-29T13:48:44.496Z,26.30
2022-07-29T13:51:11.708Z,26.30
2022-07-29T13:53:44.497Z,26.50
2022-07-29T13:56:14.945Z,26.40
2022-07-29T13:58:42.285Z,26.40
2022-07-29T14:01:11.446Z,26.50
2022-07-29T14:03:45.693Z,26.60
2022-07-29T14:06:12.967Z,26.80
2022-07-29T14:11:48.028Z,27.30
2022-07-29T14:14:15.177Z,27.20
2022-07-29T14:16:47.620Z,27.00
2022-07-29T14:19:17.825Z,26.90
2022-07-29T14:21:54.520Z,26.70
2022-07-29T14:24:24.264Z,26.50
2022-07-29T14:26:53.096Z,26.50
2022-07-29T14:29:20.091Z,26.60
2022-07-29T14:31:47.281Z,26.60
2022-07-29T14:34:16.565Z,26.50
2022-07-29T14:36:43.804Z,26.40
2022-07-29T14:39:11.204Z,26.50
2022-07-29T14:41:41.202Z,26.60
2022-07-29T14:44:08.477Z,26.70
2022-07-29T14:50:05.355Z,26.80
2022-07-29T14:52:35.673Z,26.60
2022-07-29T14:55:04.041Z,26.60
2022-07-29T14:57:32.573Z,26.40
2022-07-29T14:59:59.762Z,26.30
2022-07-29T15:02:52.253Z,26.20
2022-07-29T15:05:16.653Z,26.20
2022-07-29T15:07:44.301Z,26.00
2022-07-29T15:10:11.631Z,25.90
2022-07-29T15:12:42.567Z,25.90
2022-07-29T15:15:10.442Z,25.80
2022-07-29T15:17:40.518Z,25.70
2022-07-29T15:23:45.516Z,25.30
2022-07-29T15:26:19.164Z,25.10
2022-07-29T15:28:49.816Z,25.10
2022-07-29T15:31:32.866Z,25.00
2022-07-29T15:34:14.780Z,24.80
2022-07-29T15:36:53.411Z,24.60
2022-07-29T15:39:22.246Z,24.40
2022-07-29T15:45:41.835Z,24.20
2022-07-29T15:48:24.052Z,24.20
2022-07-29T15:51:14.790Z,24.20
2022-07-29T15:54:23.484Z,24.10
2022-07-29T16:01:06.708Z,24.10
2022-07-29T16:37:08.026Z,23.50
2022-07-29T16:39:48.473Z,23.50
2022-07-29T16:45:21.127Z,23.50
2022-07-29T16:52:26.935Z,23.40
2022-07-29T16:54:54.406Z,23.40
2022-07-29T17:00:58.084Z,23.10
2022-07-29T17:03:25.417Z,22.90
2022-07-29T17:06:59.434Z,22.80
2022-07-29T17:13:17.786Z,22.60
2022-07-29T17:15:48.391Z,22.50
2022-07-29T17:18:24.564Z,22.40
2022-07-29T17:24:09.334Z,22.30
2022-07-29T17:26:36.489Z,22.30
2022-07-29T17:29:06.750Z,22.20
2022-07-29T17:32:00.285Z,22.20
2022-07-29T17:34:30.240Z,22.10
2022-07-29T17:36:57.876Z,22.10
2022-07-29T17:39:35.739Z,21.90
2022-07-29T17:46:08.743Z,21.10
2022-07-29T17:51:43.554Z,19.80
2022-07-29T17:54:19.294Z,19.40
2022-07-29T17:56:47.873Z,18.90
2022-07-29T17:59:22.885Z,18.70
2022-07-29T18:02:02.924Z,18.60
2022-07-29T18:04:31.596Z,18.50
2022-07-29T18:06:59.135Z,18.40
2022-07-29T18:09:26.670Z,18.40
2022-07-29T18:11:57.006Z,18.30
2022-07-29T18:14:26.958Z,18.30
2022-07-29T18:17:01.014Z,18.30
2022-07-29T18:19:37.543Z,18.20
2022-07-29T18:22:10.376Z,18.20
2022-07-29T18:24:37.490Z,18.10
2022-07-29T18:27:27.359Z,18.00
2022-07-29T18:30:04.800Z,18.00
2022-07-29T18:32:32.240Z,17.90
2022-07-29T18:35:14.618Z,17.80
2022-07-29T18:38:01.310Z,17.80
2022-07-29T18:40:39.537Z,17.70
2022-07-29T18:43:07.340Z,17.70
2022-07-29T18:45:39.985Z,17.60
2022-07-29T18:48:12.808Z,17.60
2022-07-29T18:50:43.874Z,17.60
2022-07-29T19:20:38.389Z,17.40
2022-07-29T19:26:38.295Z,17.40
2022-07-29T19:29:32.418Z,17.40
2022-07-29T19:32:02.320Z,17.30
2022-07-29T19:34:29.753Z,17.30
2022-07-29T19:44:46.863Z,17.30
2022-07-29T20:06:45.244Z,17.10
2022-07-29T20:44:51.804Z,16.90
2022-07-29T20:51:28.969Z,16.90
2022-07-29T21:05:09.314Z,16.70
2022-07-29T21:08:24.741Z,16.70
2022-07-29T21:48:20.087Z,16.70
2022-07-29T21:50:54.440Z,16.70
2022-07-29T21:53:37.152Z,16.70
2022-07-29T21:56:04.961Z,16.80
2022-07-29T21:58:34.814Z,16.70
2022-07-29T22:01:04.978Z,16.70
2022-07-29T22:03:32.562Z,16.70
2022-07-29T22:06:08.241Z,16.70
2022-07-29T22:08:50.268Z,16.70
2022-07-29T22:14:41.690Z,16.70
2022-07-29T22:17:09.418Z,16.70
2022-07-29T22:19:36.505Z,16.70
2022-07-29T22:22:23.515Z,16.80
2022-07-29T22:24:59.882Z,16.70
2022-07-29T22:40:23.223Z,16.90
2022-07-29T22:43:04.753Z,16.90
2022-07-29T22:45:34.895Z,16.90
2022-07-29T22:48:02.268Z,16.80
2022-07-29T22:50:36.646Z,16.80
2022-07-29T22:53:18.598Z,16.80
2022-07-29T22:56:11.394Z,16.80
2022-07-29T22:59:03.891Z,16.80
2022-07-29T23:01:39.679Z,16.70
2022-07-29T23:04:26.198Z,16.70
2022-07-29T23:07:30.875Z,16.70
2022-07-29T23:10:35.911Z,16.70
2022-07-29T23:13:03.270Z,16.70
2022-07-29T23:15:33.597Z,16.70
2022-07-29T23:21:09.156Z,16.60
2022-07-29T23:23:45.895Z,16.60
2022-07-29T23:29:20.117Z,16.60
2022-07-29T23:31:53.714Z,16.60
2022-07-29T23:34:21.132Z,16.60
2022-07-29T23:36:58.103Z,16.60
2022-07-29T23:39:25.429Z,16.50
2022-07-29T23:41:55.139Z,16.50
2022-07-29T23:44:32.326Z,16.50
2022-07-29T23:47:10.536Z,16.50
2022-07-29T23:50:04.110Z,16.50
